sensor_id;sensor_type;location;lat;lon;timestamp;pressure;altitude;pressure_sealevel;temperature;humidity
61035;BME280;46916;40.564;-7.958;2023-02-01T00:01:34;98494.34;;;6.73;55.00
61035;BME280;46916;40.564;-7.958;2023-02-01T00:03:43;98500.13;;;6.62;54.47
61035;BME280;46916;40.564;-7.958;2023-02-01T00:06:05;98500.06;;;6.46;54.91
61035;BME280;46916;40.564;-7.958;2023-02-01T00:08:08;98496.47;;;6.31;55.50
61035;BME280;46916;40.564;-7.958;2023-02-01T00:10:15;98498.56;;;6.25;55.95
61035;BME280;46916;40.564;-7.958;2023-02-01T00:12:16;98495.66;;;6.13;56.01
61035;BME280;46916;40.564;-7.958;2023-02-01T00:14:22;98492.72;;;6.02;57.07
61035;BME280;46916;40.564;-7.958;2023-02-01T00:16:30;98491.28;;;5.97;56.93
61035;BME280;46916;40.564;-7.958;2023-02-01T00:18:31;98498.28;;;5.94;57.39
61035;BME280;46916;40.564;-7.958;2023-02-01T00:20:40;98493.28;;;5.90;57.59
61035;BME280;46916;40.564;-7.958;2023-02-01T00:22:51;98494.22;;;5.89;57.90
61035;BME280;46916;40.564;-7.958;2023-02-01T00:24:57;98489.75;;;5.92;58.67
61035;BME280;46916;40.564;-7.958;2023-02-01T00:27:06;98488.91;;;5.92;58.04
61035;BME280;46916;40.564;-7.958;2023-02-01T00:29:18;98484.56;;;5.91;58.63
61035;BME280;46916;40.564;-7.958;2023-02-01T00:31:19;98491.50;;;5.92;58.49
61035;BME280;46916;40.564;-7.958;2023-02-01T00:33:30;98482.22;;;6.04;59.04
61035;BME280;46916;40.564;-7.958;2023-02-01T00:35:40;98481.47;;;6.02;58.84
61035;BME280;46916;40.564;-7.958;2023-02-01T00:37:46;98484.78;;;6.05;59.11
61035;BME280;46916;40.564;-7.958;2023-02-01T00:39:50;98490.44;;;6.13;59.63
61035;BME280;46916;40.564;-7.958;2023-02-01T00:41:56;98477.06;;;6.21;59.54
61035;BME280;46916;40.564;-7.958;2023-02-01T00:43:59;98481.00;;;6.28;59.36
61035;BME280;46916;40.564;-7.958;2023-02-01T00:46:04;98473.97;;;6.30;58.92
61035;BME280;46916;40.564;-7.958;2023-02-01T00:48:11;98475.50;;;6.34;59.83
61035;BME280;46916;40.564;-7.958;2023-02-01T00:50:14;98464.13;;;6.37;59.27
61035;BME280;46916;40.564;-7.958;2023-02-01T00:52:15;98469.59;;;6.48;59.15
61035;BME280;46916;40.564;-7.958;2023-02-01T00:54:22;98466.84;;;6.51;59.18
61035;BME280;46916;40.564;-7.958;2023-02-01T00:56:23;98462.72;;;6.47;58.99
61035;BME280;46916;40.564;-7.958;2023-02-01T00:58:39;98463.50;;;6.49;59.04
61035;BME280;46916;40.564;-7.958;2023-02-01T01:00:46;98465.16;;;6.50;59.33
61035;BME280;46916;40.564;-7.958;2023-02-01T01:02:49;98468.22;;;6.58;59.47
61035;BME280;46916;40.564;-7.958;2023-02-01T01:05:02;98469.78;;;6.61;58.77
61035;BME280;46916;40.564;-7.958;2023-02-01T01:07:06;98470.66;;;6.61;58.85
61035;BME280;46916;40.564;-7.958;2023-02-01T01:09:09;98466.03;;;6.66;59.07
61035;BME280;46916;40.564;-7.958;2023-02-01T01:11:16;98462.66;;;6.64;58.89
61035;BME280;46916;40.564;-7.958;2023-02-01T01:13:23;98470.31;;;6.67;58.55
61035;BME280;46916;40.564;-7.958;2023-02-01T01:15:27;98467.72;;;6.67;58.94
61035;BME280;46916;40.564;-7.958;2023-02-01T01:17:34;98466.88;;;6.67;58.74
61035;BME280;46916;40.564;-7.958;2023-02-01T01:19:40;98479.66;;;6.72;59.27
61035;BME280;46916;40.564;-7.958;2023-02-01T01:21:48;98469.25;;;6.72;58.60
61035;BME280;46916;40.564;-7.958;2023-02-01T01:23:52;98469.25;;;6.72;58.92
61035;BME280;46916;40.564;-7.958;2023-02-01T01:25:59;98465.91;;;6.69;58.88
61035;BME280;46916;40.564;-7.958;2023-02-01T01:28:03;98472.00;;;6.68;58.43
61035;BME280;46916;40.564;-7.958;2023-02-01T01:30:10;98456.47;;;6.67;58.53
61035;BME280;46916;40.564;-7.958;2023-02-01T01:32:15;98466.97;;;6.65;58.31
61035;BME280;46916;40.564;-7.958;2023-02-01T01:34:18;98460.84;;;6.66;58.56
61035;BME280;46916;40.564;-7.958;2023-02-01T01:36:25;98454.03;;;6.64;58.35
61035;BME280;46916;40.564;-7.958;2023-02-01T01:38:30;98445.47;;;6.62;58.72
61035;BME280;46916;40.564;-7.958;2023-02-01T01:40:39;98450.50;;;6.65;58.27
61035;BME280;46916;40.564;-7.958;2023-02-01T01:42:43;98447.28;;;6.60;58.28
61035;BME280;46916;40.564;-7.958;2023-02-01T01:45:18;98450.91;;;6.57;58.70
61035;BME280;46916;40.564;-7.958;2023-02-01T01:47:20;98445.72;;;6.57;58.17
61035;BME280;46916;40.564;-7.958;2023-02-01T01:49:27;98449.22;;;6.56;58.06
61035;BME280;46916;40.564;-7.958;2023-02-01T01:51:36;98436.28;;;6.55;58.41
61035;BME280;46916;40.564;-7.958;2023-02-01T01:53:51;98429.31;;;6.55;58.10
61035;BME280;46916;40.564;-7.958;2023-02-01T01:55:55;98437.47;;;6.49;58.66
61035;BME280;46916;40.564;-7.958;2023-02-01T01:58:03;98440.66;;;6.54;58.77
61035;BME280;46916;40.564;-7.958;2023-02-01T02:00:15;98427.56;;;6.56;58.59
61035;BME280;46916;40.564;-7.958;2023-02-01T02:02:18;98430.00;;;6.59;59.30
61035;BME280;46916;40.564;-7.958;2023-02-01T02:04:20;98418.66;;;6.60;59.10
61035;BME280;46916;40.564;-7.958;2023-02-01T02:06:51;98431.44;;;6.64;59.49
61035;BME280;46916;40.564;-7.958;2023-02-01T02:08:56;98424.56;;;6.63;59.49
61035;BME280;46916;40.564;-7.958;2023-02-01T02:11:02;98434.97;;;6.63;59.80
61035;BME280;46916;40.564;-7.958;2023-02-01T02:13:06;98435.81;;;6.64;59.69
61035;BME280;46916;40.564;-7.958;2023-02-01T02:15:14;98433.28;;;6.62;60.23
61035;BME280;46916;40.564;-7.958;2023-02-01T02:27:06;98425.88;;;6.55;61.05
61035;BME280;46916;40.564;-7.958;2023-02-01T02:35:00;98439.13;;;6.50;61.05
61035;BME280;46916;40.564;-7.958;2023-02-01T02:39:33;98449.41;;;6.53;61.22
61035;BME280;46916;40.564;-7.958;2023-02-01T02:46:57;98452.06;;;6.52;61.95
61035;BME280;46916;40.564;-7.958;2023-02-01T02:49:23;98443.56;;;6.48;61.51
61035;BME280;46916;40.564;-7.958;2023-02-01T02:51:42;98446.34;;;6.45;61.71
61035;BME280;46916;40.564;-7.958;2023-02-01T02:54:13;98444.50;;;6.47;61.23
61035;BME280;46916;40.564;-7.958;2023-02-01T02:56:35;98449.69;;;6.47;61.67
61035;BME280;46916;40.564;-7.958;2023-02-01T02:59:02;98450.13;;;6.55;61.74
61035;BME280;46916;40.564;-7.958;2023-02-01T03:01:23;98445.47;;;6.44;61.29
61035;BME280;46916;40.564;-7.958;2023-02-01T03:03:43;98447.19;;;6.45;61.27
61035;BME280;46916;40.564;-7.958;2023-02-01T03:06:11;98447.50;;;6.39;61.35
61035;BME280;46916;40.564;-7.958;2023-02-01T03:08:23;98449.16;;;6.40;62.04
61035;BME280;46916;40.564;-7.958;2023-02-01T03:10:37;98452.00;;;6.36;61.76
61035;BME280;46916;40.564;-7.958;2023-02-01T03:12:48;98451.09;;;6.37;62.26
61035;BME280;46916;40.564;-7.958;2023-02-01T03:15:05;98436.78;;;6.28;61.77
61035;BME280;46916;40.564;-7.958;2023-02-01T03:17:22;98438.63;;;6.26;62.66
61035;BME280;46916;40.564;-7.958;2023-02-01T03:19:35;98447.28;;;6.27;62.25
61035;BME280;46916;40.564;-7.958;2023-02-01T03:21:47;98441.47;;;6.22;62.30
61035;BME280;46916;40.564;-7.958;2023-02-01T03:23:52;98422.56;;;6.18;62.73
61035;BME280;46916;40.564;-7.958;2023-02-01T03:26:05;98422.88;;;6.12;61.99
61035;BME280;46916;40.564;-7.958;2023-02-01T03:28:12;98433.44;;;6.09;62.30
61035;BME280;46916;40.564;-7.958;2023-02-01T03:30:24;98434.66;;;6.02;63.13
61035;BME280;46916;40.564;-7.958;2023-02-01T03:32:30;98448.41;;;6.04;63.38
61035;BME280;46916;40.564;-7.958;2023-02-01T03:34:59;98442.56;;;6.00;62.97
61035;BME280;46916;40.564;-7.958;2023-02-01T03:37:12;98441.19;;;5.91;63.20
61035;BME280;46916;40.564;-7.958;2023-02-01T03:41:51;98439.28;;;5.78;63.83
61035;BME280;46916;40.564;-7.958;2023-02-01T03:44:19;98438.47;;;5.77;63.98
61035;BME280;46916;40.564;-7.958;2023-02-01T03:46:30;98425.13;;;5.66;64.36
61035;BME280;46916;40.564;-7.958;2023-02-01T03:48:36;98430.19;;;5.69;63.92
61035;BME280;46916;40.564;-7.958;2023-02-01T03:50:48;98426.91;;;5.65;63.92
61035;BME280;46916;40.564;-7.958;2023-02-01T03:53:02;98430.69;;;5.58;64.75
61035;BME280;46916;40.564;-7.958;2023-02-01T03:55:11;98429.03;;;5.57;64.67
61035;BME280;46916;40.564;-7.958;2023-02-01T03:57:23;98429.16;;;5.54;65.21
61035;BME280;46916;40.564;-7.958;2023-02-01T03:59:27;98432.91;;;5.49;65.04
61035;BME280;46916;40.564;-7.958;2023-02-01T04:01:32;98425.34;;;5.44;65.29
61035;BME280;46916;40.564;-7.958;2023-02-01T04:03:35;98429.75;;;5.42;65.95
61035;BME280;46916;40.564;-7.958;2023-02-01T04:05:42;98430.91;;;5.36;65.10
61035;BME280;46916;40.564;-7.958;2023-02-01T04:07:47;98428.22;;;5.38;65.99
61035;BME280;46916;40.564;-7.958;2023-02-01T04:09:53;98427.75;;;5.30;65.62
61035;BME280;46916;40.564;-7.958;2023-02-01T04:11:56;98433.63;;;5.33;65.72
61035;BME280;46916;40.564;-7.958;2023-02-01T04:13:57;98435.41;;;5.33;66.50
61035;BME280;46916;40.564;-7.958;2023-02-01T04:16:07;98442.28;;;5.34;66.85
61035;BME280;46916;40.564;-7.958;2023-02-01T04:18:10;98436.59;;;5.26;65.73
61035;BME280;46916;40.564;-7.958;2023-02-01T04:20:17;98437.28;;;5.29;66.45
61035;BME280;46916;40.564;-7.958;2023-02-01T04:22:21;98429.44;;;5.31;66.59
61035;BME280;46916;40.564;-7.958;2023-02-01T04:24:24;98435.53;;;5.30;66.40
61035;BME280;46916;40.564;-7.958;2023-02-01T04:26:30;98441.50;;;5.32;66.65
61035;BME280;46916;40.564;-7.958;2023-02-01T04:28:37;98436.38;;;5.30;66.27
61035;BME280;46916;40.564;-7.958;2023-02-01T04:30:40;98431.13;;;5.32;66.42
61035;BME280;46916;40.564;-7.958;2023-02-01T04:32:49;98441.50;;;5.32;67.03
61035;BME280;46916;40.564;-7.958;2023-02-01T04:34:56;98437.38;;;5.28;66.96
61035;BME280;46916;40.564;-7.958;2023-02-01T04:36:59;98440.03;;;5.26;66.77
61035;BME280;46916;40.564;-7.958;2023-02-01T04:39:03;98441.78;;;5.26;66.78
61035;BME280;46916;40.564;-7.958;2023-02-01T04:41:04;98442.72;;;5.25;66.96
61035;BME280;46916;40.564;-7.958;2023-02-01T04:43:10;98443.63;;;5.24;66.72
61035;BME280;46916;40.564;-7.958;2023-02-01T04:45:17;98436.69;;;5.24;66.64
61035;BME280;46916;40.564;-7.958;2023-02-01T04:47:23;98440.47;;;5.17;66.87
61035;BME280;46916;40.564;-7.958;2023-02-01T04:49:30;98442.31;;;5.15;67.29
61035;BME280;46916;40.564;-7.958;2023-02-01T04:51:37;98441.75;;;5.08;67.30
61035;BME280;46916;40.564;-7.958;2023-02-01T04:53:44;98452.03;;;5.10;67.53
61035;BME280;46916;40.564;-7.958;2023-02-01T04:55:47;98444.19;;;5.11;67.82
61035;BME280;46916;40.564;-7.958;2023-02-01T04:57:54;98453.59;;;5.14;67.48
61035;BME280;46916;40.564;-7.958;2023-02-01T04:59:58;98445.66;;;5.17;68.33
61035;BME280;46916;40.564;-7.958;2023-02-01T05:02:05;98440.47;;;5.17;67.38
61035;BME280;46916;40.564;-7.958;2023-02-01T05:04:06;98449.03;;;5.19;67.71
61035;BME280;46916;40.564;-7.958;2023-02-01T05:06:12;98444.91;;;5.15;67.58
61035;BME280;46916;40.564;-7.958;2023-02-01T05:08:16;98438.56;;;5.20;67.85
61035;BME280;46916;40.564;-7.958;2023-02-01T05:10:22;98441.78;;;5.26;67.28
61035;BME280;46916;40.564;-7.958;2023-02-01T05:12:31;98444.34;;;5.27;67.54
61035;BME280;46916;40.564;-7.958;2023-02-01T05:14:56;98431.25;;;5.29;67.00
61035;BME280;46916;40.564;-7.958;2023-02-01T05:16:59;98437.84;;;5.36;66.80
61035;BME280;46916;40.564;-7.958;2023-02-01T05:19:00;98439.41;;;5.40;67.09
61035;BME280;46916;40.564;-7.958;2023-02-01T05:21:07;98423.94;;;5.37;66.75
61035;BME280;46916;40.564;-7.958;2023-02-01T05:23:10;98438.47;;;5.41;66.93
61035;BME280;46916;40.564;-7.958;2023-02-01T05:25:14;98429.94;;;5.39;67.34
61035;BME280;46916;40.564;-7.958;2023-02-01T05:27:20;98427.53;;;5.34;67.89
61035;BME280;46916;40.564;-7.958;2023-02-01T05:29:24;98419.91;;;5.31;67.28
61035;BME280;46916;40.564;-7.958;2023-02-01T05:31:27;98422.31;;;5.34;67.59
61035;BME280;46916;40.564;-7.958;2023-02-01T05:33:36;98422.53;;;5.30;67.29
61035;BME280;46916;40.564;-7.958;2023-02-01T05:35:37;98417.22;;;5.33;67.80
61035;BME280;46916;40.564;-7.958;2023-02-01T05:37:41;98420.78;;;5.30;67.89
61035;BME280;46916;40.564;-7.958;2023-02-01T05:39:44;98415.81;;;5.26;68.45
61035;BME280;46916;40.564;-7.958;2023-02-01T05:41:50;98424.44;;;5.26;68.06
61035;BME280;46916;40.564;-7.958;2023-02-01T05:43:57;98426.16;;;5.27;67.57
61035;BME280;46916;40.564;-7.958;2023-02-01T05:46:00;98425.97;;;5.30;68.63
61035;BME280;46916;40.564;-7.958;2023-02-01T05:48:01;98417.78;;;5.20;68.78
61035;BME280;46916;40.564;-7.958;2023-02-01T05:50:09;98422.53;;;5.30;68.24
61035;BME280;46916;40.564;-7.958;2023-02-01T05:52:15;98433.63;;;5.33;69.39
61035;BME280;46916;40.564;-7.958;2023-02-01T05:54:22;98427.59;;;5.33;68.87
61035;BME280;46916;40.564;-7.958;2023-02-01T05:56:26;98428.56;;;5.30;69.00
61035;BME280;46916;40.564;-7.958;2023-02-01T05:58:32;98421.94;;;5.25;69.28
61035;BME280;46916;40.564;-7.958;2023-02-01T06:00:38;98413.38;;;5.22;69.87
61035;BME280;46916;40.564;-7.958;2023-02-01T06:02:42;98421.94;;;5.25;68.94
61035;BME280;46916;40.564;-7.958;2023-02-01T06:04:46;98421.00;;;5.26;69.41
61035;BME280;46916;40.564;-7.958;2023-02-01T06:06:54;98422.63;;;5.28;69.49
61035;BME280;46916;40.564;-7.958;2023-02-01T06:09:03;98419.34;;;5.25;69.68
61035;BME280;46916;40.564;-7.958;2023-02-01T06:11:07;98421.09;;;5.24;70.10
61035;BME280;46916;40.564;-7.958;2023-02-01T06:13:11;98420.31;;;5.22;70.18
61035;BME280;46916;40.564;-7.958;2023-02-01T06:15:13;98431.56;;;5.22;70.00
61035;BME280;46916;40.564;-7.958;2023-02-01T06:17:20;98426.19;;;5.26;70.46
61035;BME280;46916;40.564;-7.958;2023-02-01T06:19:21;98428.88;;;5.24;70.57
61035;BME280;46916;40.564;-7.958;2023-02-01T06:21:28;98423.69;;;5.24;70.39
61035;BME280;46916;40.564;-7.958;2023-02-01T06:23:31;98426.44;;;5.21;70.73
61035;BME280;46916;40.564;-7.958;2023-02-01T06:25:38;98429.72;;;5.25;70.37
61035;BME280;46916;40.564;-7.958;2023-02-01T06:27:42;98436.69;;;5.24;70.28
61035;BME280;46916;40.564;-7.958;2023-02-01T06:29:49;98441.66;;;5.29;70.77
61035;BME280;46916;40.564;-7.958;2023-02-01T06:31:49;98443.28;;;5.31;70.56
61035;BME280;46916;40.564;-7.958;2023-02-01T06:33:51;98440.13;;;5.25;70.55
61035;BME280;46916;40.564;-7.958;2023-02-01T06:36:03;98447.91;;;5.25;70.53
61035;BME280;46916;40.564;-7.958;2023-02-01T06:38:07;98443.06;;;5.36;70.48
61035;BME280;46916;40.564;-7.958;2023-02-01T06:40:16;98449.53;;;5.27;70.90
61035;BME280;46916;40.564;-7.958;2023-02-01T06:42:23;98452.19;;;5.26;70.55
61035;BME280;46916;40.564;-7.958;2023-02-01T06:44:26;98448.75;;;5.25;70.52
61035;BME280;46916;40.564;-7.958;2023-02-01T06:46:30;98449.81;;;5.21;71.32
61035;BME280;46916;40.564;-7.958;2023-02-01T06:48:32;98446.28;;;5.22;70.80
61035;BME280;46916;40.564;-7.958;2023-02-01T06:50:35;98453.88;;;5.27;71.01
61035;BME280;46916;40.564;-7.958;2023-02-01T06:52:47;98454.94;;;5.22;70.95
61035;BME280;46916;40.564;-7.958;2023-02-01T06:54:51;98454.16;;;5.20;70.62
61035;BME280;46916;40.564;-7.958;2023-02-01T06:56:51;98459.00;;;5.28;71.30
61035;BME280;46916;40.564;-7.958;2023-02-01T06:58:55;98467.50;;;5.32;71.35
61035;BME280;46916;40.564;-7.958;2023-02-01T07:01:08;98459.34;;;5.20;71.17
61035;BME280;46916;40.564;-7.958;2023-02-01T07:03:12;98448.22;;;5.18;71.54
61035;BME280;46916;40.564;-7.958;2023-02-01T07:05:18;98456.88;;;5.17;71.94
61035;BME280;46916;40.564;-7.958;2023-02-01T07:07:24;98463.84;;;5.17;71.87
61035;BME280;46916;40.564;-7.958;2023-02-01T07:09:28;98457.72;;;5.18;71.93
61035;BME280;46916;40.564;-7.958;2023-02-01T07:11:32;98464.84;;;5.14;72.08
61035;BME280;46916;40.564;-7.958;2023-02-01T07:13:36;98463.22;;;5.12;72.19
61035;BME280;46916;40.564;-7.958;2023-02-01T07:15:40;98462.50;;;5.08;72.29
61035;BME280;46916;40.564;-7.958;2023-02-01T07:17:43;98469.34;;;5.11;72.29
61035;BME280;46916;40.564;-7.958;2023-02-01T07:19:50;98464.19;;;5.09;72.71
61035;BME280;46916;40.564;-7.958;2023-02-01T07:21:57;98471.97;;;5.09;72.62
61035;BME280;46916;40.564;-7.958;2023-02-01T07:24:00;98469.34;;;5.11;72.18
61035;BME280;46916;40.564;-7.958;2023-02-01T07:26:06;98468.41;;;5.12;72.24
61035;BME280;46916;40.564;-7.958;2023-02-01T07:28:07;98461.47;;;5.12;73.08
61035;BME280;46916;40.564;-7.958;2023-02-01T07:30:16;98461.31;;;5.15;72.22
61035;BME280;46916;40.564;-7.958;2023-02-01T07:32:20;98462.25;;;5.14;72.53
61035;BME280;46916;40.564;-7.958;2023-02-01T07:34:25;98464.28;;;5.08;72.98
61035;BME280;46916;40.564;-7.958;2023-02-01T07:36:26;98459.91;;;5.08;72.90
61035;BME280;46916;40.564;-7.958;2023-02-01T07:38:30;98461.59;;;5.09;72.75
61035;BME280;46916;40.564;-7.958;2023-02-01T07:40:34;98472.06;;;5.08;72.83
61035;BME280;46916;40.564;-7.958;2023-02-01T07:42:40;98461.19;;;5.00;72.86
61035;BME280;46916;40.564;-7.958;2023-02-01T07:44:47;98461.44;;;4.93;73.95
61035;BME280;46916;40.564;-7.958;2023-02-01T07:46:48;98470.88;;;4.96;73.36
61035;BME280;46916;40.564;-7.958;2023-02-01T07:48:52;98480.28;;;4.99;73.94
61035;BME280;46916;40.564;-7.958;2023-02-01T07:51:02;98477.53;;;5.02;73.92
61035;BME280;46916;40.564;-7.958;2023-02-01T07:53:06;98481.59;;;5.07;73.29
61035;BME280;46916;40.564;-7.958;2023-02-01T07:55:12;98477.16;;;5.09;73.77
61035;BME280;46916;40.564;-7.958;2023-02-01T07:57:13;98473.66;;;5.29;72.88
61035;BME280;46916;40.564;-7.958;2023-02-01T07:59:20;98479.09;;;5.61;72.21
61035;BME280;46916;40.564;-7.958;2023-02-01T08:01:29;98478.53;;;5.90;71.68
61035;BME280;46916;40.564;-7.958;2023-02-01T08:03:33;98496.03;;;6.06;69.87
61035;BME280;46916;40.564;-7.958;2023-02-01T08:05:36;98492.34;;;6.10;70.02
61035;BME280;46916;40.564;-7.958;2023-02-01T08:07:38;98495.50;;;6.16;69.48
61035;BME280;46916;40.564;-7.958;2023-02-01T08:09:45;98496.72;;;6.27;69.29
61035;BME280;46916;40.564;-7.958;2023-02-01T08:11:45;98501.91;;;6.27;69.09
61035;BME280;46916;40.564;-7.958;2023-02-01T08:13:51;98510.94;;;6.37;68.48
61035;BME280;46916;40.564;-7.958;2023-02-01T08:16:03;98514.53;;;6.34;68.55
61035;BME280;46916;40.564;-7.958;2023-02-01T08:18:05;98515.84;;;6.43;68.02
61035;BME280;46916;40.564;-7.958;2023-02-01T08:20:13;98515.75;;;6.44;67.92
61035;BME280;46916;40.564;-7.958;2023-02-01T08:22:17;98523.94;;;6.54;68.19
61035;BME280;46916;40.564;-7.958;2023-02-01T08:24:18;98513.84;;;6.65;68.12
61035;BME280;46916;40.564;-7.958;2023-02-01T08:26:24;98511.50;;;6.77;67.63
61035;BME280;46916;40.564;-7.958;2023-02-01T08:28:33;98517.53;;;6.94;66.77
61035;BME280;46916;40.564;-7.958;2023-02-01T08:30:38;98513.16;;;6.95;65.95
61035;BME280;46916;40.564;-7.958;2023-02-01T08:32:41;98514.00;;;6.95;65.78
61035;BME280;46916;40.564;-7.958;2023-02-01T08:34:42;98516.34;;;7.00;65.69
61035;BME280;46916;40.564;-7.958;2023-02-01T08:36:42;98519.72;;;7.02;65.22
61035;BME280;46916;40.564;-7.958;2023-02-01T08:38:43;98513.25;;;7.09;64.92
61035;BME280;46916;40.564;-7.958;2023-02-01T08:40:44;98504.75;;;7.06;65.03
61035;BME280;46916;40.564;-7.958;2023-02-01T08:42:46;98516.22;;;7.19;65.26
61035;BME280;46916;40.564;-7.958;2023-02-01T08:44:52;98513.94;;;7.29;64.30
61035;BME280;46916;40.564;-7.958;2023-02-01T08:46:53;98523.81;;;7.39;63.50
61035;BME280;46916;40.564;-7.958;2023-02-01T08:48:54;98533.19;;;7.26;64.34
61035;BME280;46916;40.564;-7.958;2023-02-01T08:50:55;98519.41;;;7.24;64.45
61035;BME280;46916;40.564;-7.958;2023-02-01T08:52:55;98523.28;;;7.33;64.49
61035;BME280;46916;40.564;-7.958;2023-02-01T08:54:56;98540.72;;;7.48;64.17
61035;BME280;46916;40.564;-7.958;2023-02-01T08:56:57;98534.00;;;7.60;63.73
61035;BME280;46916;40.564;-7.958;2023-02-01T08:58:57;98544.75;;;7.69;62.92
61035;BME280;46916;40.564;-7.958;2023-02-01T09:01:03;98542.13;;;7.54;62.92
61035;BME280;46916;40.564;-7.958;2023-02-01T09:03:04;98546.78;;;7.64;62.86
61035;BME280;46916;40.564;-7.958;2023-02-01T09:05:06;98544.41;;;7.60;63.11
61035;BME280;46916;40.564;-7.958;2023-02-01T09:07:10;98534.88;;;7.59;63.37
61035;BME280;46916;40.564;-7.958;2023-02-01T09:09:10;98555.06;;;7.71;62.98
61035;BME280;46916;40.564;-7.958;2023-02-01T09:11:14;98555.84;;;7.73;62.62
61035;BME280;46916;40.564;-7.958;2023-02-01T09:13:15;98543.06;;;7.84;62.35
61035;BME280;46916;40.564;-7.958;2023-02-01T09:15:17;98546.00;;;7.78;61.94
61035;BME280;46916;40.564;-7.958;2023-02-01T09:17:17;98557.53;;;7.74;62.23
61035;BME280;46916;40.564;-7.958;2023-02-01T09:19:18;98554.00;;;7.59;62.99
61035;BME280;46916;40.564;-7.958;2023-02-01T09:21:19;98555.75;;;7.59;62.89
61035;BME280;46916;40.564;-7.958;2023-02-01T09:23:20;98564.19;;;7.64;63.03
61035;BME280;46916;40.564;-7.958;2023-02-01T09:25:21;98566.59;;;7.67;62.69
61035;BME280;46916;40.564;-7.958;2023-02-01T09:27:22;98569.56;;;7.61;62.77
61035;BME280;46916;40.564;-7.958;2023-02-01T09:29:23;98568.88;;;7.57;62.97
61035;BME280;46916;40.564;-7.958;2023-02-01T09:31:26;98561.06;;;7.57;62.87
61035;BME280;46916;40.564;-7.958;2023-02-01T09:33:28;98568.28;;;7.52;63.11
61035;BME280;46916;40.564;-7.958;2023-02-01T09:35:30;98573.06;;;7.44;63.50
61035;BME280;46916;40.564;-7.958;2023-02-01T09:37:31;98570.50;;;7.60;63.26
61035;BME280;46916;40.564;-7.958;2023-02-01T09:39:33;98573.56;;;7.51;63.35
61035;BME280;46916;40.564;-7.958;2023-02-01T09:44:14;98570.25;;;7.80;62.71
61035;BME280;46916;40.564;-7.958;2023-02-01T09:46:31;98575.94;;;7.71;62.09
61035;BME280;46916;40.564;-7.958;2023-02-01T09:48:36;98584.53;;;7.73;62.06
61035;BME280;46916;40.564;-7.958;2023-02-01T09:50:43;98569.16;;;7.68;62.12
61035;BME280;46916;40.564;-7.958;2023-02-01T09:54:54;98583.84;;;7.69;61.54
61035;BME280;46916;40.564;-7.958;2023-02-01T09:57:01;98579.22;;;7.59;62.14
61035;BME280;46916;40.564;-7.958;2023-02-01T09:59:29;98589.16;;;7.52;62.62
61035;BME280;46916;40.564;-7.958;2023-02-01T10:01:32;98580.50;;;7.52;62.00
61035;BME280;46916;40.564;-7.958;2023-02-01T10:03:35;98578.53;;;7.39;62.92
61035;BME280;46916;40.564;-7.958;2023-02-01T10:08:14;98578.88;;;7.49;62.95
61035;BME280;46916;40.564;-7.958;2023-02-01T10:10:31;98594.38;;;7.52;62.51
61035;BME280;46916;40.564;-7.958;2023-02-01T10:24:02;98586.63;;;7.82;62.32
61035;BME280;46916;40.564;-7.958;2023-02-01T10:26:21;98596.81;;;7.87;62.66
61035;BME280;46916;40.564;-7.958;2023-02-01T10:28:24;98596.75;;;8.04;61.68
61035;BME280;46916;40.564;-7.958;2023-02-01T10:30:43;98606.81;;;8.10;61.70
61035;BME280;46916;40.564;-7.958;2023-02-01T10:32:44;98594.84;;;8.22;61.95
61035;BME280;46916;40.564;-7.958;2023-02-01T10:34:50;98601.16;;;8.34;61.77
61035;BME280;46916;40.564;-7.958;2023-02-01T10:38:58;98587.69;;;8.72;59.68
61035;BME280;46916;40.564;-7.958;2023-02-01T10:41:20;98604.13;;;8.74;59.74
61035;BME280;46916;40.564;-7.958;2023-02-01T10:43:21;98588.16;;;8.78;60.38
61035;BME280;46916;40.564;-7.958;2023-02-01T10:45:27;98591.53;;;8.80;60.07
61035;BME280;46916;40.564;-7.958;2023-02-01T10:47:29;98594.69;;;8.85;60.04
61035;BME280;46916;40.564;-7.958;2023-02-01T10:51:48;98588.50;;;9.16;59.32
61035;BME280;46916;40.564;-7.958;2023-02-01T10:54:20;98590.91;;;9.34;58.76
61035;BME280;46916;40.564;-7.958;2023-02-01T10:56:25;98598.28;;;9.41;58.46
61035;BME280;46916;40.564;-7.958;2023-02-01T10:58:28;98598.41;;;9.40;58.39
61035;BME280;46916;40.564;-7.958;2023-02-01T11:05:46;98590.53;;;9.68;57.78
61035;BME280;46916;40.564;-7.958;2023-02-01T11:07:54;98592.31;;;9.68;57.32
61035;BME280;46916;40.564;-7.958;2023-02-01T11:09:56;98581.63;;;9.71;58.03
61035;BME280;46916;40.564;-7.958;2023-02-01T11:11:59;98595.94;;;9.80;57.57
61035;BME280;46916;40.564;-7.958;2023-02-01T11:14:13;98585.25;;;9.83;58.11
61035;BME280;46916;40.564;-7.958;2023-02-01T11:16:14;98582.63;;;9.83;57.91
61035;BME280;46916;40.564;-7.958;2023-02-01T11:18:24;98586.66;;;9.88;57.96
61035;BME280;46916;40.564;-7.958;2023-02-01T11:22:34;98579.44;;;9.92;58.08
61035;BME280;46916;40.564;-7.958;2023-02-01T11:24:36;98584.47;;;9.95;57.87
61035;BME280;46916;40.564;-7.958;2023-02-01T11:26:41;98583.16;;;10.02;58.11
61035;BME280;46916;40.564;-7.958;2023-02-01T11:28:50;98581.34;;;10.17;58.16
61035;BME280;46916;40.564;-7.958;2023-02-01T11:31:02;98584.13;;;10.14;57.50
61035;BME280;46916;40.564;-7.958;2023-02-01T11:33:07;98566.53;;;10.16;57.48
61035;BME280;46916;40.564;-7.958;2023-02-01T11:35:20;98590.22;;;10.14;57.86
61035;BME280;46916;40.564;-7.958;2023-02-01T11:37:32;98576.28;;;10.14;58.25
61035;BME280;46916;40.564;-7.958;2023-02-01T11:39:35;98578.91;;;10.14;58.02
61035;BME280;46916;40.564;-7.958;2023-02-01T11:42:11;98568.88;;;10.21;58.05
61035;BME280;46916;40.564;-7.958;2023-02-01T11:44:20;98576.25;;;10.28;58.02
61035;BME280;46916;40.564;-7.958;2023-02-01T11:46:24;98565.69;;;10.30;58.14
61035;BME280;46916;40.564;-7.958;2023-02-01T11:48:30;98574.38;;;10.30;57.38
61035;BME280;46916;40.564;-7.958;2023-02-01T11:53:20;98562.13;;;10.31;58.30
61035;BME280;46916;40.564;-7.958;2023-02-01T12:02:50;98556.25;;;10.27;56.05
61035;BME280;46916;40.564;-7.958;2023-02-01T12:05:14;98562.88;;;10.33;56.26
61035;BME280;46916;40.564;-7.958;2023-02-01T12:16:49;98537.50;;;10.06;56.52
61035;BME280;46916;40.564;-7.958;2023-02-01T12:19:28;98543.69;;;10.05;56.55
61035;BME280;46916;40.564;-7.958;2023-02-01T12:28:31;98513.28;;;10.17;55.83
61035;BME280;46916;40.564;-7.958;2023-02-01T12:35:58;98496.63;;;10.18;55.28
61035;BME280;46916;40.564;-7.958;2023-02-01T12:42:44;98487.22;;;10.28;55.80
61035;BME280;46916;40.564;-7.958;2023-02-01T12:45:01;98495.00;;;10.30;56.27